Independence — WDG9585 — position and weather

sailwx.info

Track history (hours):
 
Tides and Currents Weather Stations Pressure Air Temp Water Temp Dewpoint Dewpoint Depression Visibility Wind Speed Wind Dir Waves Ship Positions

Independence

Owner: Enterprise Marine Services, LLC, San Antonio, TX. More information available from US FCC via Universal Licensing System and Coast Guard Vessel Documentation Center.

Last reported at 2018-Feb-19 03:22 UTC. Time now 2018-Feb-19 04:20 UTC.
Position N 29°47' W 095°05'.

Length 27 m; draft 3 m.

Type: . MMSI: 367589280.

Date/timePositionNaut miles runAvg speedWind from/ knotsBaromVisibWave heightAir tempDewpointWater temp
2018-Feb-19 03:22N 29°47' W 095°05'0 0.0
2018-Feb-19 02:19N 29°47' W 095°05'0 0.4
2018-Feb-19 02:00N 29°47' W 095°05'0 0.1
2018-Feb-19 01:28N 29°47' W 095°05'0 0.4
2018-Feb-19 00:51N 29°47' W 095°05'0 0.4
2018-Feb-19 00:24N 29°47' W 095°05'0 0.1
2018-Feb-18 18:50N 29°47' W 095°05'0 0.0
2018-Feb-18 18:30N 29°47' W 095°05'0 0.0
2018-Feb-18 17:59N 29°47' W 095°05'0 0.0
2018-Feb-18 17:30N 29°47' W 095°05'0 0.0
2018-Feb-18 16:57N 29°47' W 095°05'0 0.0
2018-Feb-18 16:27N 29°47' W 095°05'0 0.0
2018-Feb-18 15:59N 29°47' W 095°05'0 0.0
2018-Feb-18 15:22N 29°47' W 095°05'0 0.0
2018-Feb-18 15:00N 29°47' W 095°05'0 0.0
2018-Feb-18 14:27N 29°47' W 095°05'0 0.0
2018-Feb-18 13:54N 29°47' W 095°05'0 0.0
2018-Feb-18 13:24N 29°47' W 095°05'0 0.0
2018-Feb-18 12:26N 29°47' W 095°05'0 0.0
2018-Feb-18 11:44N 29°47' W 095°05'0 0.0
2018-Feb-18 11:17N 29°47' W 095°05'0 0.0
2018-Feb-18 08:26N 29°47' W 095°05'0 0.0
2018-Feb-18 07:53N 29°47' W 095°05'0 0.0
2018-Feb-18 07:27N 29°47' W 095°05'0 0.0
2018-Feb-18 07:00N 29°47' W 095°05'0 0.0
2018-Feb-18 06:12N 29°47' W 095°05'0 0.0
2018-Feb-18 06:00N 29°47' W 095°05'0 0.0
2018-Feb-18 05:27N 29°47' W 095°05'0 0.0
2018-Feb-17 20:56N 29°47' W 095°05'1 1.6
2018-Feb-17 20:28N 29°47' W 095°05'0 0.5
2018-Feb-17 19:43N 29°46' W 095°05'0 2.1
2018-Feb-17 19:30N 29°46' W 095°05'3 5.7
2018-Feb-17 19:00N 29°44' W 095°02'3 5.9
2018-Feb-17 18:30N 29°42' W 094°60'3 7.0
2018-Feb-17 18:00N 29°39' W 094°58'4 7.7
2018-Feb-17 17:30N 29°35' W 094°56'4 7.8
2018-Feb-17 17:00N 29°32' W 094°54'11 1.6
2018-Feb-17 10:18N 29°24' W 094°44'0 0.0
2018-Feb-17 09:49N 29°24' W 094°44'0 0.0
2018-Feb-17 09:29N 29°24' W 094°44'0 0.0
2018-Feb-17 08:56N 29°24' W 094°44'0 0.0
2018-Feb-17 08:24N 29°24' W 094°44'0 0.0
2018-Feb-17 07:56N 29°24' W 094°44'0 0.0
2018-Feb-17 07:27N 29°24' W 094°44'0 0.0
2018-Feb-17 07:00N 29°24' W 094°44'0 0.0
2018-Feb-17 06:19N 29°24' W 094°44'0 0.0
2018-Feb-17 05:59N 29°24' W 094°44'0 0.0
2018-Feb-17 05:30N 29°24' W 094°44'0 0.0
2018-Feb-17 04:48N 29°24' W 094°44'0 0.0
2018-Feb-17 04:29N 29°24' W 094°44'0 0.0
2018-Feb-17 04:00N 29°24' W 094°44'0 0.0
2018-Feb-17 03:28N 29°24' W 094°44'0 0.0
2018-Feb-17 02:56N 29°24' W 094°44'0 0.0
2018-Feb-17 02:25N 29°24' W 094°44'0 0.0
2018-Feb-17 02:00N 29°24' W 094°44'0 0.0
2018-Feb-17 01:29N 29°24' W 094°44'0 0.0
2018-Feb-17 00:54N 29°24' W 094°44'0 0.0
2018-Feb-17 00:29N 29°24' W 094°44'1 1.6
2018-Feb-16 23:57N 29°25' W 094°44'3 5.2
2018-Feb-16 23:21N 29°27' W 094°41'2 4.2
2018-Feb-16 22:59N 29°28' W 094°39'12 2.6
2018-Feb-16 18:25N 29°34' W 094°28'1 2.2
2018-Feb-16 18:00N 29°34' W 094°27'3 4.8
2018-Feb-16 17:27N 29°36' W 094°24'2 4.4
2018-Feb-16 17:00N 29°36' W 094°22'3 5.2
2018-Feb-16 16:30N 29°37' W 094°20'3 5.3
2018-Feb-16 16:00N 29°39' W 094°17'3 5.3
2018-Feb-16 15:30N 29°40' W 094°14'2 4.1
2018-Feb-16 14:59N 29°41' W 094°12'2 4.1
2018-Feb-16 14:30N 29°41' W 094°10'2 3.4
2018-Feb-16 14:00N 29°42' W 094°08'3 5.3
2018-Feb-16 13:30N 29°44' W 094°06'2 4.8
2018-Feb-16 13:00N 29°45' W 094°04'2 4.2
2018-Feb-16 12:30N 29°47' W 094°02'1 1.9
2018-Feb-16 12:00N 29°47' W 094°01'0 0.1
2018-Feb-16 11:30N 29°47' W 094°01'0 0.1
2018-Feb-16 11:00N 29°47' W 094°01'0 0.1
2018-Feb-16 10:30N 29°47' W 094°01'0 0.0
2018-Feb-16 10:00N 29°47' W 094°01'0 0.0
2018-Feb-16 09:30N 29°47' W 094°01'0 0.0
2018-Feb-16 09:00N 29°47' W 094°01'0 0.0
2018-Feb-16 08:30N 29°47' W 094°01'0 0.0
2018-Feb-16 08:00N 29°47' W 094°01'0 0.0
2018-Feb-16 07:30N 29°47' W 094°01'0 0.0
2018-Feb-16 07:00N 29°47' W 094°01'0 0.0
2018-Feb-16 06:30N 29°47' W 094°01'0 0.0
2018-Feb-16 06:00N 29°47' W 094°01'0 0.0
2018-Feb-16 05:30N 29°47' W 094°01'0 0.0
2018-Feb-16 05:00N 29°47' W 094°01'0 0.0
2018-Feb-16 04:30N 29°47' W 094°01'0 0.0
2018-Feb-16 04:00N 29°47' W 094°01'0 0.0
2018-Feb-16 03:30N 29°47' W 094°01'0 0.0
2018-Feb-16 03:00N 29°47' W 094°01'0 0.0
2018-Feb-16 02:30N 29°47' W 094°01'0 0.0
2018-Feb-16 02:00N 29°47' W 094°01'0 0.2
2018-Feb-16 01:30N 29°47' W 094°01'1 1.4
2018-Feb-16 01:00N 29°48' W 094°00'2 4.2
2018-Feb-16 00:30N 29°49' W 093°58'3 6.8
2018-Feb-16 00:00N 29°52' W 093°56'4 7.4
2018-Feb-15 23:30N 29°55' W 093°53'3 6.3
2018-Feb-15 23:00N 29°58' W 093°51'1 1.5
2018-Feb-15 22:30N 29°58' W 093°51'0 0.9
2018-Feb-15 22:00N 29°58' W 093°52'0 0.0
2018-Feb-15 21:30N 29°58' W 093°52'0 0.0
2018-Feb-15 21:00N 29°58' W 093°52'0 0.0
2018-Feb-15 20:30N 29°58' W 093°52'0 0.0
2018-Feb-15 20:00N 29°58' W 093°52'0 0.0
2018-Feb-15 19:30N 29°58' W 093°52'0 0.0
2018-Feb-15 19:00N 29°58' W 093°52'0 0.0
2018-Feb-15 18:30N 29°58' W 093°52'0 0.0
2018-Feb-15 18:00N 29°58' W 093°52'0 0.0
2018-Feb-15 17:30N 29°58' W 093°52'0 0.0
2018-Feb-15 17:00N 29°58' W 093°52'0 0.0
2018-Feb-15 16:30N 29°58' W 093°52'0 0.0
2018-Feb-15 15:59N 29°58' W 093°52'0 0.0
2018-Feb-15 15:30N 29°58' W 093°52'0 0.0
2018-Feb-15 15:00N 29°58' W 093°52'0 0.0
2018-Feb-15 14:30N 29°58' W 093°52'0 0.0
2018-Feb-15 14:00N 29°58' W 093°52'0 0.0
2018-Feb-15 13:30N 29°58' W 093°52'0 0.0
2018-Feb-15 13:00N 29°58' W 093°52'0 0.0
2018-Feb-15 12:30N 29°58' W 093°52'0 0.0
2018-Feb-15 12:00N 29°58' W 093°52'0 0.0
2018-Feb-15 11:30N 29°58' W 093°52'0 0.0
2018-Feb-15 11:00N 29°58' W 093°52'0 0.0
2018-Feb-15 10:30N 29°58' W 093°52'0 0.0
2018-Feb-15 10:00N 29°58' W 093°52'0 0.0
2018-Feb-15 09:30N 29°58' W 093°52'0 0.0
2018-Feb-15 09:00N 29°58' W 093°52'0 0.0
2018-Feb-15 08:30N 29°58' W 093°52'0 0.0
2018-Feb-15 08:00N 29°58' W 093°52'0 0.0
2018-Feb-15 07:30N 29°58' W 093°52'0 0.0
2018-Feb-15 07:00N 29°58' W 093°52'0 0.0
2018-Feb-15 06:30N 29°58' W 093°52'0 0.0
2018-Feb-15 06:00N 29°58' W 093°52'0 0.0
2018-Feb-15 05:30N 29°58' W 093°52'0 0.0
2018-Feb-15 05:00N 29°58' W 093°52'0 0.0
2018-Feb-15 04:30N 29°58' W 093°52'0 0.0
2018-Feb-15 04:00N 29°58' W 093°52'0 0.0
2018-Feb-15 03:29N 29°58' W 093°52'0 0.0
2018-Feb-15 03:00N 29°58' W 093°52'0 0.0
2018-Feb-15 02:30N 29°58' W 093°52'0 0.0
2018-Feb-15 02:00N 29°58' W 093°52'0 0.0
2018-Feb-15 01:30N 29°58' W 093°52'0 0.0
2018-Feb-15 01:00N 29°58' W 093°52'0 0.0
2018-Feb-15 00:30N 29°58' W 093°52'0 0.0
2018-Feb-15 00:00N 29°58' W 093°52'0 0.0
2018-Feb-14 23:30N 29°58' W 093°52'0 0.0
2018-Feb-14 23:00N 29°58' W 093°52'0 0.0
2018-Feb-14 22:30N 29°58' W 093°52'0 0.0
2018-Feb-14 22:00N 29°58' W 093°52'0 0.0
2018-Feb-14 21:29N 29°58' W 093°52'0 0.0
2018-Feb-14 21:00N 29°58' W 093°52'0 0.0
2018-Feb-14 20:30N 29°58' W 093°52'0 0.0
2018-Feb-14 20:00N 29°58' W 093°52'0 0.0
2018-Feb-14 19:30N 29°58' W 093°52'0 0.0
2018-Feb-14 19:00N 29°58' W 093°52'0 0.0
2018-Feb-14 18:30N 29°58' W 093°52'0 0.0
2018-Feb-14 18:00N 29°58' W 093°52'0 0.0
2018-Feb-14 17:30N 29°58' W 093°52'0 0.0
2018-Feb-14 17:00N 29°58' W 093°52'0 0.0
2018-Feb-14 16:30N 29°58' W 093°52'0 0.0
2018-Feb-14 16:00N 29°58' W 093°52'0 0.0
2018-Feb-14 15:30N 29°58' W 093°52'0 0.0
2018-Feb-14 15:00N 29°58' W 093°52'0 0.0
2018-Feb-14 14:30N 29°58' W 093°52'0 0.0
2018-Feb-14 14:00N 29°58' W 093°52'0 0.0
2018-Feb-14 13:30N 29°58' W 093°52'0 0.0
2018-Feb-14 13:00N 29°58' W 093°52'0 0.0
2018-Feb-14 12:30N 29°58' W 093°52'0 0.0
2018-Feb-14 12:00N 29°58' W 093°52'0 0.0
2018-Feb-14 11:30N 29°58' W 093°52'0 0.0
2018-Feb-14 11:00N 29°58' W 093°52'0 0.0
2018-Feb-14 10:30N 29°58' W 093°52'0 0.0
2018-Feb-14 10:00N 29°58' W 093°52'0 0.0
2018-Feb-14 09:30N 29°58' W 093°52'0 0.0
2018-Feb-14 09:00N 29°58' W 093°52'0 0.0
2018-Feb-14 08:30N 29°58' W 093°52'0 0.0
2018-Feb-14 08:00N 29°58' W 093°52'0 0.0
2018-Feb-14 07:30N 29°58' W 093°52'0 0.0
2018-Feb-14 07:00N 29°58' W 093°52'0 0.0
2018-Feb-14 06:30N 29°58' W 093°52'1 1.9
2018-Feb-14 06:00N 29°57' W 093°52'1 1.8
2018-Feb-14 05:30N 29°58' W 093°52'0 0.0
2018-Feb-14 05:00N 29°58' W 093°52'0 0.0
2018-Feb-14 04:30N 29°58' W 093°52'0 0.0
2018-Feb-14 04:00N 29°58' W 093°52'0 0.6
2018-Feb-14 03:30N 29°58' W 093°51'0 0.0
2018-Feb-14 03:00N 29°58' W 093°51'0 0.0
2018-Feb-14 02:30N 29°58' W 093°51'0 0.0
2018-Feb-14 02:00N 29°58' W 093°51'0 0.0
2018-Feb-14 01:30N 29°58' W 093°51'0 0.0
2018-Feb-14 01:00N 29°58' W 093°51'0 0.0
2018-Feb-14 00:30N 29°58' W 093°51'0 0.0
2018-Feb-14 00:00N 29°58' W 093°51'0 0.0
2018-Feb-13 23:30N 29°58' W 093°51'0 0.0
2018-Feb-13 23:00N 29°58' W 093°51'0 0.6
2018-Feb-13 22:30N 29°58' W 093°51'0 0.4
2018-Feb-13 22:00N 29°58' W 093°51'1 1.2
2018-Feb-13 21:30N 29°59' W 093°52'1 2.1
2018-Feb-13 21:00N 29°59' W 093°53'0 0.0
2018-Feb-13 20:30N 29°59' W 093°53'0 0.0
2018-Feb-13 20:00N 29°59' W 093°53'0 0.0
2018-Feb-13 19:29N 29°59' W 093°53'0 0.0
2018-Feb-13 19:00N 29°59' W 093°53'0 0.0
2018-Feb-13 18:30N 29°59' W 093°53'0 0.0
2018-Feb-13 18:00N 29°59' W 093°53'0 0.0
2018-Feb-13 17:30N 29°59' W 093°53'0 0.0
2018-Feb-13 17:00N 29°59' W 093°53'0 0.0
2018-Feb-13 16:30N 29°59' W 093°53'0 0.0
2018-Feb-13 16:00N 29°59' W 093°53'0 0.0
2018-Feb-13 15:30N 29°59' W 093°53'0 0.0
2018-Feb-13 15:00N 29°59' W 093°53'0 0.0
2018-Feb-13 14:30N 29°59' W 093°53'0 0.0
2018-Feb-13 13:59N 29°59' W 093°53'0 0.0
2018-Feb-13 13:29N 29°59' W 093°53'0 0.0
2018-Feb-13 13:00N 29°59' W 093°53'0 0.0
2018-Feb-13 12:30N 29°59' W 093°53'0 0.0
2018-Feb-13 11:59N 29°59' W 093°53'0 0.0
2018-Feb-13 11:29N 29°59' W 093°53'0 0.0
2018-Feb-13 11:00N 29°59' W 093°53'0 0.0
2018-Feb-13 10:30N 29°59' W 093°53'0 0.0
2018-Feb-13 10:00N 29°59' W 093°53'0 0.0
2018-Feb-13 09:30N 29°59' W 093°53'0 0.0
2018-Feb-13 09:00N 29°59' W 093°53'0 0.0
2018-Feb-13 08:30N 29°59' W 093°53'0 0.0
2018-Feb-13 07:58N 29°59' W 093°53'0 0.0
2018-Feb-13 07:30N 29°59' W 093°53'0 0.0
2018-Feb-13 07:00N 29°59' W 093°53'0 0.0
2018-Feb-13 06:30N 29°59' W 093°53'0 0.0
2018-Feb-13 06:00N 29°59' W 093°53'0 0.0
2018-Feb-13 05:29N 29°59' W 093°53'0 0.0
2018-Feb-13 05:00N 29°59' W 093°53'0 0.0
2018-Feb-13 04:30N 29°59' W 093°53'0 0.0
2018-Feb-13 04:00N 29°59' W 093°53'0 0.0
2018-Feb-13 03:29N 29°59' W 093°53'0 0.0
2018-Feb-13 03:00N 29°59' W 093°53'0 0.0
2018-Feb-13 02:30N 29°59' W 093°53'0 0.0
2018-Feb-13 02:00N 29°59' W 093°53'0 0.0
2018-Feb-13 01:30N 29°59' W 093°53'0 0.0
2018-Feb-13 01:00N 29°59' W 093°53'0 0.0
2018-Feb-13 00:30N 29°59' W 093°53'0 0.3
2018-Feb-13 00:00N 29°59' W 093°53'0 0.2
2018-Feb-12 23:30N 29°59' W 093°53'3 5.7
2018-Feb-12 23:00N 29°56' W 093°52'5 9.6
2018-Feb-12 22:30N 29°52' W 093°56'4 8.2
2018-Feb-12 22:00N 29°49' W 093°59'3 6.2
2018-Feb-12 21:30N 29°47' W 094°01'3 6.0
2018-Feb-12 21:00N 29°45' W 094°04'3 6.1
2018-Feb-12 20:30N 29°43' W 094°07'3 6.0
2018-Feb-12 20:00N 29°41' W 094°09'3 5.9
2018-Feb-12 19:30N 29°41' W 094°13'3 5.6
2018-Feb-12 18:53N 29°39' W 094°16'9 4.5
2018-Feb-12 17:01N 29°35' W 094°25'0 0.0
2018-Feb-12 17:00N 29°35' W 094°25'1 2.1
2018-Feb-12 16:27N 29°34' W 094°25'4 5.2
2018-Feb-12 15:38N 29°32' W 094°29'19 1.5
2018-Feb-12 02:39N 29°28' W 094°51'2 7.7
2018-Feb-12 02:25N 29°30' W 094°52'3 7.8
2018-Feb-12 02:00N 29°32' W 094°54'4 8.0
2018-Feb-12 01:30N 29°36' W 094°57'4 7.8
2018-Feb-12 01:00N 29°39' W 094°58'3 6.7
2018-Feb-12 00:30N 29°42' W 095°01'5 6.7
2018-Feb-11 23:42N 29°46' W 095°05'1 0.0
2018-Feb-10 14:44N 29°47' W 095°05'0 0.0
2018-Feb-10 14:29N 29°47' W 095°05'0 0.0
2018-Feb-10 09:38N 29°47' W 095°05'0 0.0
2018-Feb-10 09:27N 29°47' W 095°05'0 0.0
2018-Feb-10 07:21N 29°47' W 095°05'0 0.0
2018-Feb-10 06:59N 29°47' W 095°05'0 0.0
2018-Feb-10 04:40N 29°47' W 095°05'  
Track history (hours):
 
Tides and Currents Weather Stations Pressure Air Temp Water Temp Dewpoint Dewpoint Depression Visibility Wind Speed Wind Dir Waves Ship Positions

Independence

Owner: Enterprise Marine Services, LLC, San Antonio, TX. More information available from US FCC via Universal Licensing System and Coast Guard Vessel Documentation Center.

Last reported at 2018-Feb-19 03:22 UTC. Time now 2018-Feb-19 04:20 UTC.
Position N 29°47' W 095°05'.

Length 27 m; draft 3 m.

Type: . MMSI: 367589280.

Date/timePositionNaut miles runAvg speedWind from/ knotsBaromVisibWave heightAir tempDewpointWater temp
2018-Feb-19 03:22N 29°47' W 095°05'0 0.0
2018-Feb-19 02:19N 29°47' W 095°05'0 0.4
2018-Feb-19 02:00N 29°47' W 095°05'0 0.1
2018-Feb-19 01:28N 29°47' W 095°05'0 0.4
2018-Feb-19 00:51N 29°47' W 095°05'0 0.4
2018-Feb-19 00:24N 29°47' W 095°05'0 0.1
2018-Feb-18 18:50N 29°47' W 095°05'0 0.0
2018-Feb-18 18:30N 29°47' W 095°05'0 0.0
2018-Feb-18 17:59N 29°47' W 095°05'0 0.0
2018-Feb-18 17:30N 29°47' W 095°05'0 0.0
2018-Feb-18 16:57N 29°47' W 095°05'0 0.0
2018-Feb-18 16:27N 29°47' W 095°05'0 0.0
2018-Feb-18 15:59N 29°47' W 095°05'0 0.0
2018-Feb-18 15:22N 29°47' W 095°05'0 0.0
2018-Feb-18 15:00N 29°47' W 095°05'0 0.0
2018-Feb-18 14:27N 29°47' W 095°05'0 0.0
2018-Feb-18 13:54N 29°47' W 095°05'0 0.0
2018-Feb-18 13:24N 29°47' W 095°05'0 0.0
2018-Feb-18 12:26N 29°47' W 095°05'0 0.0
2018-Feb-18 11:44N 29°47' W 095°05'0 0.0
2018-Feb-18 11:17N 29°47' W 095°05'0 0.0
2018-Feb-18 08:26N 29°47' W 095°05'0 0.0
2018-Feb-18 07:53N 29°47' W 095°05'0 0.0
2018-Feb-18 07:27N 29°47' W 095°05'0 0.0
2018-Feb-18 07:00N 29°47' W 095°05'0 0.0
2018-Feb-18 06:12N 29°47' W 095°05'0 0.0
2018-Feb-18 06:00N 29°47' W 095°05'0 0.0
2018-Feb-18 05:27N 29°47' W 095°05'0 0.0
2018-Feb-17 20:56N 29°47' W 095°05'1 1.6
2018-Feb-17 20:28N 29°47' W 095°05'0 0.5
2018-Feb-17 19:43N 29°46' W 095°05'0 2.1
2018-Feb-17 19:30N 29°46' W 095°05'3 5.7
2018-Feb-17 19:00N 29°44' W 095°02'3 5.9
2018-Feb-17 18:30N 29°42' W 094°60'3 7.0
2018-Feb-17 18:00N 29°39' W 094°58'4 7.7
2018-Feb-17 17:30N 29°35' W 094°56'4 7.8
2018-Feb-17 17:00N 29°32' W 094°54'11 1.6
2018-Feb-17 10:18N 29°24' W 094°44'0 0.0
2018-Feb-17 09:49N 29°24' W 094°44'0 0.0
2018-Feb-17 09:29N 29°24' W 094°44'0 0.0
2018-Feb-17 08:56N 29°24' W 094°44'0 0.0
2018-Feb-17 08:24N 29°24' W 094°44'0 0.0
2018-Feb-17 07:56N 29°24' W 094°44'0 0.0
2018-Feb-17 07:27N 29°24' W 094°44'0 0.0
2018-Feb-17 07:00N 29°24' W 094°44'0 0.0
2018-Feb-17 06:19N 29°24' W 094°44'0 0.0
2018-Feb-17 05:59N 29°24' W 094°44'0 0.0
2018-Feb-17 05:30N 29°24' W 094°44'0 0.0
2018-Feb-17 04:48N 29°24' W 094°44'0 0.0
2018-Feb-17 04:29N 29°24' W 094°44'0 0.0
2018-Feb-17 04:00N 29°24' W 094°44'0 0.0
2018-Feb-17 03:28N 29°24' W 094°44'0 0.0
2018-Feb-17 02:56N 29°24' W 094°44'0 0.0
2018-Feb-17 02:25N 29°24' W 094°44'0 0.0
2018-Feb-17 02:00N 29°24' W 094°44'0 0.0
2018-Feb-17 01:29N 29°24' W 094°44'0 0.0
2018-Feb-17 00:54N 29°24' W 094°44'0 0.0
2018-Feb-17 00:29N 29°24' W 094°44'1 1.6
2018-Feb-16 23:57N 29°25' W 094°44'3 5.2
2018-Feb-16 23:21N 29°27' W 094°41'2 4.2
2018-Feb-16 22:59N 29°28' W 094°39'12 2.6
2018-Feb-16 18:25N 29°34' W 094°28'1 2.2
2018-Feb-16 18:00N 29°34' W 094°27'3 4.8
2018-Feb-16 17:27N 29°36' W 094°24'2 4.4
2018-Feb-16 17:00N 29°36' W 094°22'3 5.2
2018-Feb-16 16:30N 29°37' W 094°20'3 5.3
2018-Feb-16 16:00N 29°39' W 094°17'3 5.3
2018-Feb-16 15:30N 29°40' W 094°14'2 4.1
2018-Feb-16 14:59N 29°41' W 094°12'2 4.1
2018-Feb-16 14:30N 29°41' W 094°10'2 3.4
2018-Feb-16 14:00N 29°42' W 094°08'3 5.3
2018-Feb-16 13:30N 29°44' W 094°06'2 4.8
2018-Feb-16 13:00N 29°45' W 094°04'2 4.2
2018-Feb-16 12:30N 29°47' W 094°02'1 1.9
2018-Feb-16 12:00N 29°47' W 094°01'0 0.1
2018-Feb-16 11:30N 29°47' W 094°01'0 0.1
2018-Feb-16 11:00N 29°47' W 094°01'0 0.1
2018-Feb-16 10:30N 29°47' W 094°01'0 0.0
2018-Feb-16 10:00N 29°47' W 094°01'0 0.0
2018-Feb-16 09:30N 29°47' W 094°01'0 0.0
2018-Feb-16 09:00N 29°47' W 094°01'0 0.0
2018-Feb-16 08:30N 29°47' W 094°01'0 0.0
2018-Feb-16 08:00N 29°47' W 094°01'0 0.0
2018-Feb-16 07:30N 29°47' W 094°01'0 0.0
2018-Feb-16 07:00N 29°47' W 094°01'0 0.0
2018-Feb-16 06:30N 29°47' W 094°01'0 0.0
2018-Feb-16 06:00N 29°47' W 094°01'0 0.0
2018-Feb-16 05:30N 29°47' W 094°01'0 0.0
2018-Feb-16 05:00N 29°47' W 094°01'0 0.0
2018-Feb-16 04:30N 29°47' W 094°01'0 0.0
2018-Feb-16 04:00N 29°47' W 094°01'0 0.0
2018-Feb-16 03:30N 29°47' W 094°01'0 0.0
2018-Feb-16 03:00N 29°47' W 094°01'0 0.0
2018-Feb-16 02:30N 29°47' W 094°01'0 0.0
2018-Feb-16 02:00N 29°47' W 094°01'0 0.2
2018-Feb-16 01:30N 29°47' W 094°01'1 1.4
2018-Feb-16 01:00N 29°48' W 094°00'2 4.2
2018-Feb-16 00:30N 29°49' W 093°58'3 6.8
2018-Feb-16 00:00N 29°52' W 093°56'4 7.4
2018-Feb-15 23:30N 29°55' W 093°53'3 6.3
2018-Feb-15 23:00N 29°58' W 093°51'1 1.5
2018-Feb-15 22:30N 29°58' W 093°51'0 0.9
2018-Feb-15 22:00N 29°58' W 093°52'0 0.0
2018-Feb-15 21:30N 29°58' W 093°52'0 0.0
2018-Feb-15 21:00N 29°58' W 093°52'0 0.0
2018-Feb-15 20:30N 29°58' W 093°52'0 0.0
2018-Feb-15 20:00N 29°58' W 093°52'0 0.0
2018-Feb-15 19:30N 29°58' W 093°52'0 0.0
2018-Feb-15 19:00N 29°58' W 093°52'0 0.0
2018-Feb-15 18:30N 29°58' W 093°52'0 0.0
2018-Feb-15 18:00N 29°58' W 093°52'0 0.0
2018-Feb-15 17:30N 29°58' W 093°52'0 0.0
2018-Feb-15 17:00N 29°58' W 093°52'0 0.0
2018-Feb-15 16:30N 29°58' W 093°52'0 0.0
2018-Feb-15 15:59N 29°58' W 093°52'0 0.0
2018-Feb-15 15:30N 29°58' W 093°52'0 0.0
2018-Feb-15 15:00N 29°58' W 093°52'0 0.0
2018-Feb-15 14:30N 29°58' W 093°52'0 0.0
2018-Feb-15 14:00N 29°58' W 093°52'0 0.0
2018-Feb-15 13:30N 29°58' W 093°52'0 0.0
2018-Feb-15 13:00N 29°58' W 093°52'0 0.0
2018-Feb-15 12:30N 29°58' W 093°52'0 0.0
2018-Feb-15 12:00N 29°58' W 093°52'0 0.0
2018-Feb-15 11:30N 29°58' W 093°52'0 0.0
2018-Feb-15 11:00N 29°58' W 093°52'0 0.0
2018-Feb-15 10:30N 29°58' W 093°52'0 0.0
2018-Feb-15 10:00N 29°58' W 093°52'0 0.0
2018-Feb-15 09:30N 29°58' W 093°52'0 0.0
2018-Feb-15 09:00N 29°58' W 093°52'0 0.0
2018-Feb-15 08:30N 29°58' W 093°52'0 0.0
2018-Feb-15 08:00N 29°58' W 093°52'0 0.0
2018-Feb-15 07:30N 29°58' W 093°52'0 0.0
2018-Feb-15 07:00N 29°58' W 093°52'0 0.0
2018-Feb-15 06:30N 29°58' W 093°52'0 0.0
2018-Feb-15 06:00N 29°58' W 093°52'0 0.0
2018-Feb-15 05:30N 29°58' W 093°52'0 0.0
2018-Feb-15 05:00N 29°58' W 093°52'0 0.0
2018-Feb-15 04:30N 29°58' W 093°52'0 0.0
2018-Feb-15 04:00N 29°58' W 093°52'0 0.0
2018-Feb-15 03:29N 29°58' W 093°52'0 0.0
2018-Feb-15 03:00N 29°58' W 093°52'0 0.0
2018-Feb-15 02:30N 29°58' W 093°52'0 0.0
2018-Feb-15 02:00N 29°58' W 093°52'0 0.0
2018-Feb-15 01:30N 29°58' W 093°52'0 0.0
2018-Feb-15 01:00N 29°58' W 093°52'0 0.0
2018-Feb-15 00:30N 29°58' W 093°52'0 0.0
2018-Feb-15 00:00N 29°58' W 093°52'0 0.0
2018-Feb-14 23:30N 29°58' W 093°52'0 0.0
2018-Feb-14 23:00N 29°58' W 093°52'0 0.0
2018-Feb-14 22:30N 29°58' W 093°52'0 0.0
2018-Feb-14 22:00N 29°58' W 093°52'0 0.0
2018-Feb-14 21:29N 29°58' W 093°52'0 0.0
2018-Feb-14 21:00N 29°58' W 093°52'0 0.0
2018-Feb-14 20:30N 29°58' W 093°52'0 0.0
2018-Feb-14 20:00N 29°58' W 093°52'0 0.0
2018-Feb-14 19:30N 29°58' W 093°52'0 0.0
2018-Feb-14 19:00N 29°58' W 093°52'0 0.0
2018-Feb-14 18:30N 29°58' W 093°52'0 0.0
2018-Feb-14 18:00N 29°58' W 093°52'0 0.0
2018-Feb-14 17:30N 29°58' W 093°52'0 0.0
2018-Feb-14 17:00N 29°58' W 093°52'0 0.0
2018-Feb-14 16:30N 29°58' W 093°52'0 0.0
2018-Feb-14 16:00N 29°58' W 093°52'0 0.0
2018-Feb-14 15:30N 29°58' W 093°52'0 0.0
2018-Feb-14 15:00N 29°58' W 093°52'0 0.0
2018-Feb-14 14:30N 29°58' W 093°52'0 0.0
2018-Feb-14 14:00N 29°58' W 093°52'0 0.0
2018-Feb-14 13:30N 29°58' W 093°52'0 0.0
2018-Feb-14 13:00N 29°58' W 093°52'0 0.0
2018-Feb-14 12:30N 29°58' W 093°52'0 0.0
2018-Feb-14 12:00N 29°58' W 093°52'0 0.0
2018-Feb-14 11:30N 29°58' W 093°52'0 0.0
2018-Feb-14 11:00N 29°58' W 093°52'0 0.0
2018-Feb-14 10:30N 29°58' W 093°52'0 0.0
2018-Feb-14 10:00N 29°58' W 093°52'0 0.0
2018-Feb-14 09:30N 29°58' W 093°52'0 0.0
2018-Feb-14 09:00N 29°58' W 093°52'0 0.0
2018-Feb-14 08:30N 29°58' W 093°52'0 0.0
2018-Feb-14 08:00N 29°58' W 093°52'0 0.0
2018-Feb-14 07:30N 29°58' W 093°52'0 0.0
2018-Feb-14 07:00N 29°58' W 093°52'0 0.0
2018-Feb-14 06:30N 29°58' W 093°52'1 1.9
2018-Feb-14 06:00N 29°57' W 093°52'1 1.8
2018-Feb-14 05:30N 29°58' W 093°52'0 0.0
2018-Feb-14 05:00N 29°58' W 093°52'0 0.0
2018-Feb-14 04:30N 29°58' W 093°52'0 0.0
2018-Feb-14 04:00N 29°58' W 093°52'0 0.6
2018-Feb-14 03:30N 29°58' W 093°51'0 0.0
2018-Feb-14 03:00N 29°58' W 093°51'0 0.0
2018-Feb-14 02:30N 29°58' W 093°51'0 0.0
2018-Feb-14 02:00N 29°58' W 093°51'0 0.0
2018-Feb-14 01:30N 29°58' W 093°51'0 0.0
2018-Feb-14 01:00N 29°58' W 093°51'0 0.0
2018-Feb-14 00:30N 29°58' W 093°51'0 0.0
2018-Feb-14 00:00N 29°58' W 093°51'0 0.0
2018-Feb-13 23:30N 29°58' W 093°51'0 0.0
2018-Feb-13 23:00N 29°58' W 093°51'0 0.6
2018-Feb-13 22:30N 29°58' W 093°51'0 0.4
2018-Feb-13 22:00N 29°58' W 093°51'1 1.2
2018-Feb-13 21:30N 29°59' W 093°52'1 2.1
2018-Feb-13 21:00N 29°59' W 093°53'0 0.0
2018-Feb-13 20:30N 29°59' W 093°53'0 0.0
2018-Feb-13 20:00N 29°59' W 093°53'0 0.0
2018-Feb-13 19:29N 29°59' W 093°53'0 0.0
2018-Feb-13 19:00N 29°59' W 093°53'0 0.0
2018-Feb-13 18:30N 29°59' W 093°53'0 0.0
2018-Feb-13 18:00N 29°59' W 093°53'0 0.0
2018-Feb-13 17:30N 29°59' W 093°53'0 0.0
2018-Feb-13 17:00N 29°59' W 093°53'0 0.0
2018-Feb-13 16:30N 29°59' W 093°53'0 0.0
2018-Feb-13 16:00N 29°59' W 093°53'0 0.0
2018-Feb-13 15:30N 29°59' W 093°53'0 0.0
2018-Feb-13 15:00N 29°59' W 093°53'0 0.0
2018-Feb-13 14:30N 29°59' W 093°53'0 0.0
2018-Feb-13 13:59N 29°59' W 093°53'0 0.0
2018-Feb-13 13:29N 29°59' W 093°53'0 0.0
2018-Feb-13 13:00N 29°59' W 093°53'0 0.0
2018-Feb-13 12:30N 29°59' W 093°53'0 0.0
2018-Feb-13 11:59N 29°59' W 093°53'0 0.0
2018-Feb-13 11:29N 29°59' W 093°53'0 0.0
2018-Feb-13 11:00N 29°59' W 093°53'0 0.0
2018-Feb-13 10:30N 29°59' W 093°53'0 0.0
2018-Feb-13 10:00N 29°59' W 093°53'0 0.0
2018-Feb-13 09:30N 29°59' W 093°53'0 0.0
2018-Feb-13 09:00N 29°59' W 093°53'0 0.0
2018-Feb-13 08:30N 29°59' W 093°53'0 0.0
2018-Feb-13 07:58N 29°59' W 093°53'0 0.0
2018-Feb-13 07:30N 29°59' W 093°53'0 0.0
2018-Feb-13 07:00N 29°59' W 093°53'0 0.0
2018-Feb-13 06:30N 29°59' W 093°53'0 0.0
2018-Feb-13 06:00N 29°59' W 093°53'0 0.0
2018-Feb-13 05:29N 29°59' W 093°53'0 0.0
2018-Feb-13 05:00N 29°59' W 093°53'0 0.0
2018-Feb-13 04:30N 29°59' W 093°53'0 0.0
2018-Feb-13 04:00N 29°59' W 093°53'0 0.0
2018-Feb-13 03:29N 29°59' W 093°53'0 0.0
2018-Feb-13 03:00N 29°59' W 093°53'0 0.0
2018-Feb-13 02:30N 29°59' W 093°53'0 0.0
2018-Feb-13 02:00N 29°59' W 093°53'0 0.0
2018-Feb-13 01:30N 29°59' W 093°53'0 0.0
2018-Feb-13 01:00N 29°59' W 093°53'0 0.0
2018-Feb-13 00:30N 29°59' W 093°53'0 0.3
2018-Feb-13 00:00N 29°59' W 093°53'0 0.2
2018-Feb-12 23:30N 29°59' W 093°53'3 5.7
2018-Feb-12 23:00N 29°56' W 093°52'5 9.6
2018-Feb-12 22:30N 29°52' W 093°56'4 8.2
2018-Feb-12 22:00N 29°49' W 093°59'3 6.2
2018-Feb-12 21:30N 29°47' W 094°01'3 6.0
2018-Feb-12 21:00N 29°45' W 094°04'3 6.1
2018-Feb-12 20:30N 29°43' W 094°07'3 6.0
2018-Feb-12 20:00N 29°41' W 094°09'3 5.9
2018-Feb-12 19:30N 29°41' W 094°13'3 5.6
2018-Feb-12 18:53N 29°39' W 094°16'9 4.5
2018-Feb-12 17:01N 29°35' W 094°25'0 0.0
2018-Feb-12 17:00N 29°35' W 094°25'1 2.1
2018-Feb-12 16:27N 29°34' W 094°25'4 5.2
2018-Feb-12 15:38N 29°32' W 094°29'19 1.5
2018-Feb-12 02:39N 29°28' W 094°51'2 7.7
2018-Feb-12 02:25N 29°30' W 094°52'3 7.8
2018-Feb-12 02:00N 29°32' W 094°54'4 8.0
2018-Feb-12 01:30N 29°36' W 094°57'4 7.8
2018-Feb-12 01:00N 29°39' W 094°58'3 6.7
2018-Feb-12 00:30N 29°42' W 095°01'5 6.7
2018-Feb-11 23:42N 29°46' W 095°05'1 0.0
2018-Feb-10 14:44N 29°47' W 095°05'0 0.0
2018-Feb-10 14:29N 29°47' W 095°05'0 0.0
2018-Feb-10 09:38N 29°47' W 095°05'0 0.0
2018-Feb-10 09:27N 29°47' W 095°05'0 0.0
2018-Feb-10 07:21N 29°47' W 095°05'0 0.0
2018-Feb-10 06:59N 29°47' W 095°05'0 0.0
2018-Feb-10 04:40N 29°47' W 095°05'  

Dump ship's entire track history